Time;durP1;ratioP1;P1;durP2;ratioP2;P2;SDS_P1;SDS_P2;PMS_P1;PMS_P2;Temp;Humidity;BMP_temperature;BMP_pressure;BME280_temperature;BME280_humidity;BME280_pressure;Samples;Min_cycle;Max_cycle;Signal;HPM_P1;HPM_P2
2020/12/13 00:00:47;;;;;;;3.90;2.83;;;8.10;95.40;;;11.58;80.89;100463.06;4985443;28;96869;-76
2020/12/13 00:03:14;;;;;;;11.73;4.22;;;8.10;95.40;;;11.66;80.32;100467.63;4965774;28;97852;-75
2020/12/13 00:05:43;;;;;;;7.53;3.63;;;8.10;95.40;;;11.67;80.31;100472.66;4984793;28;97796;-75
2020/12/13 00:08:11;;;;;;;2.80;2.45;;;8.00;95.40;;;11.57;80.56;100475.66;4975527;28;96674;-75
2020/12/13 00:10:38;;;;;;;7.35;4.88;;;8.00;95.40;;;11.57;80.12;100480.25;4980647;28;96917;-75
2020/12/13 00:13:06;;;;;;;21.65;4.90;;;8.00;95.40;;;11.50;80.35;100478.00;4978431;28;97914;-75
2020/12/13 00:15:34;;;;;;;9.45;5.57;;;8.00;95.40;;;11.49;80.58;100481.78;4973678;28;97753;-75
2020/12/13 00:18:06;;;;;;;4.40;2.88;;;8.00;95.40;;;11.47;80.56;100484.00;4991488;28;97337;-75
2020/12/13 00:20:34;;;;;;;3.40;3.10;;;8.00;95.40;;;11.50;80.42;100494.09;4983466;28;96933;-75
2020/12/13 00:23:04;;;;;;;8.90;4.32;;;7.90;95.40;;;11.43;80.30;100491.09;4989309;28;96841;-76
2020/12/13 00:25:33;;;;;;;12.27;2.45;;;7.90;95.40;;;11.42;80.46;100494.06;4984013;28;97120;-76
2020/12/13 00:28:02;;;;;;;9.38;4.13;;;7.90;95.40;;;11.44;80.26;100489.97;4987009;28;97275;-76
2020/12/13 00:30:31;;;;;;;4.35;2.70;;;7.90;95.40;;;11.41;80.00;100490.63;4999965;28;97016;-75
2020/12/13 00:32:58;;;;;;;4.03;3.58;;;7.90;95.40;;;11.33;80.35;100486.00;4980892;28;96814;-75
2020/12/13 00:35:26;;;;;;;4.65;2.67;;;7.80;95.30;;;11.30;80.24;100489.31;4982934;28;97684;-76
2020/12/13 00:37:54;;;;;;;6.13;3.13;;;7.80;95.30;;;11.27;80.25;100491.84;4976465;28;96688;-76
2020/12/13 00:40:22;;;;;;;6.03;4.03;;;7.80;95.30;;;11.25;80.65;100494.00;4980024;28;96945;-76
2020/12/13 00:42:50;;;;;;;9.57;2.90;;;7.80;95.30;;;11.25;80.52;100512.78;4987452;28;97937;-76
2020/12/13 00:45:18;;;;;;;2.78;1.83;;;7.70;95.30;;;11.19;80.36;100525.56;4975216;28;98087;-76
2020/12/13 00:47:45;;;;;;;9.85;2.97;;;7.70;95.30;;;11.12;80.70;100525.22;4966761;28;96807;-75
2020/12/13 00:50:13;;;;;;;11.68;4.07;;;7.70;95.30;;;11.07;80.46;100530.72;4981609;28;97304;-75
2020/12/13 00:52:41;;;;;;;2.60;2.35;;;7.60;95.30;;;11.11;80.38;100547.78;4984008;28;97094;-75
2020/12/13 00:55:09;;;;;;;4.50;3.45;;;7.60;95.30;;;11.12;79.87;100549.38;4985229;28;97582;-75
2020/12/13 00:57:40;;;;;;;15.23;4.00;;;7.60;95.30;;;11.12;80.02;100548.56;4997216;28;96702;-76
2020/12/13 01:00:08;;;;;;;4.03;2.83;;;7.50;95.30;;;10.96;80.10;100548.19;4988140;28;97017;-76
2020/12/13 01:02:37;;;;;;;3.78;3.08;;;7.50;95.30;;;10.88;80.85;100554.28;4979446;28;96871;-75
2020/12/13 01:05:05;;;;;;;4.22;2.88;;;7.50;95.30;;;10.90;80.93;100557.44;4983669;28;97637;-75
2020/12/13 01:07:33;;;;;;;6.32;2.10;;;7.40;95.30;;;10.86;80.45;100558.38;4970237;28;96631;-76
2020/12/13 01:10:02;;;;;;;3.80;2.80;;;7.40;95.30;;;10.85;80.92;100570.19;4965946;28;98266;-75
2020/12/13 01:12:32;;;;;;;6.50;2.08;;;7.40;95.40;;;10.81;80.66;100576.44;5001446;28;98297;-76
2020/12/13 01:15:00;;;;;;;5.90;2.65;;;7.40;95.30;;;10.78;80.66;100574.38;4986652;28;96763;-76
2020/12/13 01:17:30;;;;;;;8.27;3.88;;;7.30;95.30;;;10.71;80.74;100580.19;4987741;28;96624;-76
2020/12/13 01:19:58;;;;;;;5.80;2.92;;;7.30;95.30;;;10.69;80.62;100597.66;4957820;28;96730;-76
2020/12/13 01:22:25;;;;;;;2.53;2.20;;;7.30;95.30;;;10.70;80.60;100601.94;4982667;28;97823;-75
2020/12/13 01:24:54;;;;;;;5.45;3.25;;;7.20;95.30;;;10.64;80.71;100606.59;4980821;28;98092;-76
2020/12/13 01:27:22;;;;;;;3.05;2.30;;;7.20;95.30;;;10.59;80.84;100608.63;4975484;28;96755;-76
2020/12/13 01:29:49;;;;;;;3.75;2.42;;;7.20;95.30;;;10.52;80.61;100608.28;4971076;28;96908;-76
2020/12/13 01:32:17;;;;;;;2.50;2.30;;;7.20;95.30;;;10.52;80.99;100610.97;4982160;28;97847;-76
2020/12/13 01:34:45;;;;;;;9.48;2.92;;;7.10;95.30;;;10.51;81.05;100617.38;4966047;28;97705;-76
2020/12/13 01:37:13;;;;;;;10.32;4.43;;;7.10;95.30;;;10.50;80.93;100621.97;4997761;28;96778;-75
2020/12/13 01:39:41;;;;;;;8.50;3.55;;;7.10;95.30;;;10.47;81.15;100621.75;4997633;28;96747;-76
2020/12/13 01:42:09;;;;;;;7.72;3.05;;;7.10;95.40;;;10.44;80.89;100627.72;4993531;28;98515;-75
2020/12/13 01:44:38;;;;;;;2.47;2.03;;;7.00;95.30;;;10.50;80.55;100631.88;4973464;28;100193;-76
2020/12/13 01:47:08;;;;;;;6.25;3.40;;;7.00;95.40;;;10.60;80.71;100631.66;4984344;28;96823;-76
2020/12/13 01:49:39;;;;;;;4.70;3.50;;;7.00;95.40;;;10.59;80.07;100624.72;4969495;28;96877;-76
2020/12/13 01:55:07;;;;;;;7.55;3.55;;;7.00;95.40;;;10.48;80.28;100642.09;4983242;28;96815;-76
2020/12/13 01:57:41;;;;;;;8.20;4.35;;;7.00;95.40;;;10.44;80.33;100638.44;4993736;28;96813;-76
2020/12/13 02:00:12;;;;;;;8.55;3.10;;;7.00;95.40;;;10.44;80.13;100643.81;4986136;28;96771;-76
2020/12/13 02:02:45;;;;;;;6.70;2.35;;;6.90;95.40;;;10.44;80.55;100639.25;4991872;28;97039;-76
2020/12/13 02:05:15;;;;;;;12.52;2.55;;;6.90;95.40;;;10.46;79.97;100633.56;4985163;28;97762;-76
2020/12/13 02:07:47;;;;;;;8.25;3.45;;;6.90;95.60;;;10.40;80.30;100630.25;4990879;28;96838;-76
2020/12/13 02:10:16;;;;;;;4.60;2.08;;;6.90;95.40;;;10.46;80.25;100629.03;4977208;28;97198;-76
2020/12/13 02:12:44;;;;;;;4.53;3.95;;;6.90;95.40;;;10.47;80.17;100635.97;4977019;28;96999;-76
2020/12/13 02:15:12;;;;;;;4.28;2.42;;;6.80;95.40;;;10.48;80.06;100642.91;4964331;28;97698;-76
2020/12/13 02:17:40;;;;;;;9.93;3.08;;;6.90;95.40;;;10.46;79.72;100636.25;4983086;28;97129;-76
2020/12/13 02:20:12;;;;;;;6.82;3.25;;;6.80;95.40;;;10.46;80.09;100638.94;4985328;28;96871;-75
2020/12/13 02:22:43;;;;;;;5.00;2.95;;;6.80;95.40;;;10.39;80.22;100642.06;4992081;28;97090;-76
2020/12/13 02:25:13;;;;;;;5.35;3.00;;;6.80;95.40;;;10.38;80.05;100639.66;4971107;28;98688;-76
2020/12/13 02:27:41;;;;;;;8.10;3.63;;;6.80;95.40;;;10.46;80.21;100642.41;4984941;28;96750;-76
2020/12/13 02:30:10;;;;;;;4.13;1.92;;;6.80;95.40;;;10.52;79.49;100648.47;4982169;28;97642;-76
2020/12/13 02:32:38;;;;;;;1.95;1.83;;;6.80;95.40;;;10.42;80.30;100654.03;4987488;28;97595;-76
2020/12/13 02:35:09;;;;;;;2.83;2.63;;;6.80;95.40;;;10.43;80.01;100658.28;4984684;28;97842;-76
2020/12/13 02:37:37;;;;;;;4.00;3.15;;;6.80;95.40;;;10.44;79.87;100675.94;4988694;28;97488;-76
2020/12/13 02:40:06;;;;;;;12.40;3.20;;;6.80;95.40;;;10.43;79.64;100680.53;4980246;28;97151;-75
2020/12/13 02:42:34;;;;;;;2.28;2.10;;;6.80;95.40;;;10.32;80.20;100681.81;4974991;28;97157;-76
2020/12/13 02:45:04;;;;;;;5.22;3.65;;;6.70;95.40;;;10.32;80.32;100683.72;4963727;28;97700;-76
2020/12/13 02:47:32;;;;;;;5.50;3.30;;;6.70;95.40;;;10.35;80.05;100685.78;4983790;28;97541;-76
2020/12/13 02:50:00;;;;;;;7.03;4.03;;;6.70;95.40;;;10.38;79.83;100694.03;4987709;28;96727;-76
2020/12/13 02:52:32;;;;;;;1.65;1.42;;;6.70;95.40;;;10.38;79.77;100693.22;4980395;28;97821;-76
2020/12/13 02:54:59;;;;;;;7.32;3.65;;;6.70;95.40;;;10.37;79.64;100702.34;4986778;28;96809;-76
2020/12/13 02:57:32;;;;;;;4.03;3.03;;;6.70;95.40;;;10.35;79.68;100701.88;4989918;28;97116;-75
2020/12/13 03:00:00;;;;;;;4.00;3.67;;;6.70;95.40;;;10.29;79.92;100709.19;4982979;28;97069;-75
2020/12/13 03:02:32;;;;;;;1.65;1.45;;;6.70;95.40;;;10.28;80.07;100714.88;5000221;28;97895;-75
2020/12/13 03:05:00;;;;;;;4.47;2.30;;;6.60;95.40;;;10.26;80.08;100717.06;4969633;28;97740;-75
2020/12/13 03:07:30;;;;;;;2.33;2.13;;;6.60;95.40;;;10.25;79.65;100716.25;4975302;28;96833;-75
2020/12/13 03:09:58;;;;;;;3.92;2.67;;;6.60;95.40;;;10.28;79.74;100712.97;4985134;28;96905;-75
2020/12/13 03:12:26;;;;;;;7.75;3.40;;;6.60;95.40;;;10.30;79.86;100721.50;4972560;28;99197;-75
2020/12/13 03:14:55;;;;;;;3.00;2.17;;;6.60;95.40;;;10.34;79.66;100719.03;4987955;28;97696;-75
2020/12/13 03:17:23;;;;;;;6.65;2.60;;;6.60;95.40;;;10.36;79.58;100725.69;4981211;28;96663;-75
2020/12/13 03:19:53;;;;;;;5.03;2.80;;;6.60;95.40;;;10.31;79.41;100714.28;4985513;28;96595;-75
2020/12/13 03:22:20;;;;;;;6.65;2.65;;;6.60;95.40;;;10.27;79.96;100718.66;4984379;28;98559;-75
2020/12/13 03:24:48;;;;;;;5.13;3.38;;;6.60;95.40;;;10.23;79.69;100726.47;4990115;28;97619;-75
2020/12/13 03:27:16;;;;;;;3.35;2.08;;;6.60;95.50;;;10.31;79.84;100730.34;4976338;28;96798;-76
2020/12/13 03:29:45;;;;;;;1.58;1.00;;;6.60;95.50;;;10.29;79.43;100724.50;4973134;28;96703;-75
2020/12/13 03:32:13;;;;;;;4.13;2.85;;;6.60;95.40;;;10.25;79.77;100726.19;4981679;28;97920;-76
2020/12/13 03:34:41;;;;;;;2.97;2.67;;;6.60;95.40;;;10.28;79.85;100728.25;4984391;28;97696;-75
2020/12/13 03:37:09;;;;;;;5.43;2.63;;;6.60;95.40;;;10.34;79.52;100729.75;4992155;28;97540;-76
2020/12/13 03:39:36;;;;;;;2.75;2.47;;;6.60;95.40;;;10.31;79.59;100735.69;4988692;28;96945;-75
2020/12/13 03:42:05;;;;;;;4.57;2.22;;;6.50;95.40;;;10.41;79.21;100730.13;4972681;28;96998;-75
2020/12/13 03:44:33;;;;;;;2.72;2.17;;;6.50;95.40;;;10.34;79.38;100727.84;4972326;28;96836;-76
2020/12/13 03:47:02;;;;;;;2.35;1.83;;;6.60;95.50;;;10.29;79.51;100727.16;4982535;28;97370;-75
2020/12/13 03:49:32;;;;;;;3.33;2.40;;;6.50;95.40;;;10.27;79.44;100730.13;4981317;28;97311;-76
2020/12/13 03:52:00;;;;;;;1.98;1.65;;;6.50;95.40;;;10.27;79.52;100730.13;4986627;28;97678;-75
2020/12/13 03:54:31;;;;;;;5.57;2.83;;;6.50;95.40;;;10.18;79.62;100731.94;4970345;28;96793;-76
2020/12/13 03:56:59;;;;;;;3.88;2.45;;;6.50;95.40;;;10.17;80.02;100733.03;4988896;28;96766;-76
2020/12/13 03:59:30;;;;;;;5.35;2.30;;;6.50;95.40;;;10.17;79.79;100742.94;4985159;28;96800;-75
2020/12/13 04:01:57;;;;;;;3.08;2.63;;;6.50;95.50;;;10.19;79.81;100744.22;4981686;28;98228;-75
2020/12/13 04:04:26;;;;;;;2.95;2.53;;;6.50;95.50;;;10.22;79.50;100742.84;4984752;28;97637;-75
2020/12/13 04:06:54;;;;;;;6.95;2.97;;;6.50;95.40;;;10.25;79.61;100747.59;4966827;28;96769;-75
2020/12/13 04:09:22;;;;;;;3.33;2.17;;;6.50;95.40;;;10.23;79.11;100752.47;4990550;28;97089;-75
2020/12/13 04:11:50;;;;;;;4.07;1.25;;;6.50;95.40;;;10.16;79.56;100754.72;4988462;28;96758;-75
2020/12/13 04:14:17;;;;;;;4.97;2.05;;;6.50;95.40;;;10.11;79.56;100761.00;4978678;28;98037;-75
2020/12/13 04:16:45;;;;;;;4.32;2.70;;;6.50;95.40;;;10.16;79.30;100762.75;4985895;28;96860;-75
2020/12/13 04:19:13;;;;;;;3.40;3.05;;;6.40;95.40;;;10.12;79.70;100769.81;4972738;28;96936;-75
2020/12/13 04:21:42;;;;;;;3.30;1.67;;;6.40;95.40;;;10.25;79.22;100772.47;4981964;28;97833;-75
2020/12/13 04:24:11;;;;;;;2.47;1.48;;;6.40;95.40;;;10.22;78.92;100773.06;4971629;28;96744;-76
2020/12/13 04:26:38;;;;;;;3.10;1.95;;;6.40;95.40;;;10.13;79.46;100779.41;4987250;28;96857;-75
2020/12/13 04:29:06;;;;;;;2.70;2.38;;;6.40;95.40;;;10.09;79.32;100775.75;4990364;28;97132;-75
2020/12/13 04:31:33;;;;;;;5.57;3.20;;;6.40;95.40;;;10.08;79.37;100782.19;4973271;28;96702;-76
2020/12/13 04:34:04;;;;;;;3.45;2.03;;;6.30;95.40;;;10.13;79.64;100782.09;4989583;28;97336;-76
2020/12/13 04:36:32;;;;;;;5.15;3.20;;;6.30;95.40;;;10.06;79.25;100776.34;4972606;28;96735;-76
2020/12/13 04:38:59;;;;;;;2.05;1.67;;;6.30;95.40;;;10.12;79.33;100772.47;4984621;28;97130;-75
2020/12/13 04:41:31;;;;;;;6.32;1.63;;;6.30;95.40;;;10.15;79.02;100787.94;4969588;28;97870;-76
2020/12/13 04:44:03;;;;;;;3.00;1.10;;;6.30;95.40;;;10.12;78.88;100780.50;4975741;28;97776;-76
2020/12/13 04:46:31;;;;;;;2.35;2.13;;;6.30;95.40;;;9.95;79.76;100780.28;4981180;28;96976;-76
2020/12/13 04:48:59;;;;;;;4.05;2.92;;;6.30;95.40;;;9.98;79.44;100780.47;4975689;28;96728;-76
2020/12/13 04:51:33;;;;;;;2.15;1.73;;;6.30;95.40;;;9.87;80.17;100784.44;4988607;28;96920;-75
2020/12/13 04:54:05;;;;;;;3.80;2.65;;;6.30;95.40;;;9.84;80.21;100792.25;4976147;28;96748;-76
2020/12/13 04:56:36;;;;;;;2.10;1.90;;;6.30;95.40;;;9.87;79.81;100799.69;4987224;28;96745;-75
2020/12/13 04:59:07;;;;;;;3.13;2.10;;;6.20;95.40;;;9.90;80.05;100804.44;4981828;28;96808;-76
2020/12/13 05:01:35;;;;;;;3.65;3.10;;;6.20;95.40;;;9.89;79.78;100797.50;4975652;28;98020;-76
2020/12/13 05:04:04;;;;;;;3.38;2.10;;;6.20;95.40;;;9.98;79.67;100803.78;4988064;28;96722;-76
2020/12/13 05:06:31;;;;;;;7.70;3.47;;;6.20;95.40;;;10.00;79.67;100802.38;4988186;28;97329;-76
2020/12/13 05:08:59;;;;;;;2.78;1.77;;;6.20;95.50;;;10.07;79.29;100804.72;4968947;28;96806;-76
2020/12/13 05:11:30;;;;;;;2.95;1.92;;;6.30;95.50;;;10.03;79.18;100814.41;4983972;28;96784;-75
2020/12/13 05:13:59;;;;;;;3.78;2.85;;;6.20;95.40;;;10.03;79.34;100814.41;4968149;28;96906;-76
2020/12/13 05:16:31;;;;;;;;;;;6.20;95.40;;;9.94;79.47;100810.81;4982106;28;96703;-76
2020/12/13 05:18:58;;;;;;;5.05;1.85;;;6.20;95.40;;;9.90;79.73;100815.94;4986531;28;96969;-75
2020/12/13 05:21:27;;;;;;;3.67;3.30;;;6.20;95.40;;;9.84;79.94;100822.50;4989553;28;96790;-76
2020/12/13 05:23:55;;;;;;;2.80;2.17;;;6.20;95.40;;;9.87;79.99;100826.44;4978581;28;96961;-75
2020/12/13 05:26:23;;;;;;;12.75;2.35;;;6.20;95.40;;;9.84;80.20;100827.03;4976670;28;96795;-75
2020/12/13 05:28:53;;;;;;;6.88;3.38;;;6.20;95.50;;;9.90;80.11;100831.19;4982202;28;96834;-75
2020/12/13 05:31:25;;;;;;;5.75;3.83;;;6.20;95.50;;;9.87;80.20;100829.13;4979899;28;96989;-75
2020/12/13 05:33:56;;;;;;;8.07;2.53;;;6.20;95.50;;;9.83;80.29;100834.28;4986863;28;97923;-75
2020/12/13 05:36:27;;;;;;;3.20;2.60;;;6.20;95.50;;;9.89;80.02;100840.31;4966534;28;97231;-76
2020/12/13 05:38:59;;;;;;;2.92;1.90;;;6.30;95.50;;;9.88;79.62;100841.41;5000210;28;97245;-76
2020/12/13 05:41:37;;;;;;;7.07;2.08;;;6.30;95.50;;;9.90;79.86;100840.03;4992900;28;97932;-76
2020/12/13 05:44:26;;;;;;;2.47;2.08;;;6.20;95.40;;;9.90;79.90;100839.22;4984594;28;97622;-76
2020/12/13 05:47:07;;;;;;;6.18;3.20;;;6.20;95.50;;;9.85;80.31;100844.69;4987118;28;96880;-77
2020/12/13 05:52:20;;;;;;;1.35;1.25;;;6.20;95.50;;;9.83;80.08;100844.19;4992305;28;97206;-76
2020/12/13 05:54:48;;;;;;;1.95;1.50;;;6.20;95.50;;;9.79;80.25;100846.66;4991361;28;100066;-76
2020/12/13 05:57:18;;;;;;;6.55;1.77;;;6.20;95.50;;;9.80;80.15;100848.25;4980370;28;96681;-76
2020/12/13 05:59:46;;;;;;;5.07;2.30;;;6.20;95.50;;;9.84;80.15;100848.44;4982631;28;97168;-76
2020/12/13 06:02:15;;;;;;;4.70;2.08;;;6.20;95.50;;;9.86;80.25;100847.06;4981509;28;97086;-76
2020/12/13 06:04:45;;;;;;;3.35;2.38;;;6.20;95.50;;;9.82;80.25;100845.28;4971252;28;97314;-75
2020/12/13 06:07:13;;;;;;;4.13;2.85;;;6.20;95.50;;;9.86;79.99;100856.97;4991286;28;97265;-75
2020/12/13 06:09:44;;;;;;;8.70;3.08;;;6.20;95.50;;;9.96;79.59;100854.91;4980467;28;96704;-74
2020/12/13 06:12:13;;;;;;;3.45;3.03;;;6.20;95.50;;;9.97;79.59;100851.16;4984325;28;97904;-74
2020/12/13 06:14:43;;;;;;;4.55;2.78;;;6.20;95.50;;;9.88;79.80;100855.59;4981082;28;96748;-74
2020/12/13 06:17:10;;;;;;;2.55;1.83;;;6.20;95.50;;;9.80;80.20;100863.50;4987508;28;96753;-74
2020/12/13 06:19:41;;;;;;;4.47;2.88;;;6.20;95.50;;;9.97;79.50;100858.41;4974915;28;96750;-74
2020/12/13 06:22:15;;;;;;;2.35;2.10;;;6.20;95.50;;;9.95;79.61;100855.22;4983380;28;96960;-74
2020/12/13 06:24:46;;;;;;;8.77;2.58;;;6.20;95.50;;;9.92;79.49;100863.84;4985341;28;98025;-74
2020/12/13 06:27:16;;;;;;;1.02;0.93;;;6.20;95.50;;;9.96;79.44;100867.53;4988689;28;97131;-74
2020/12/13 06:29:44;;;;;;;6.68;1.67;;;6.20;95.50;;;9.94;79.58;100875.06;4979734;28;96913;-74
2020/12/13 06:32:12;;;;;;;3.63;2.97;;;6.20;95.50;;;9.83;80.21;100877.09;5005736;28;97743;-74
2020/12/13 06:34:44;;;;;;;3.70;1.55;;;6.20;95.50;;;9.84;80.09;100875.19;4991323;28;97580;-74
2020/12/13 06:37:13;;;;;;;1.50;1.40;;;6.20;95.50;;;9.90;80.18;100880.19;4991881;28;97106;-74
2020/12/13 06:39:42;;;;;;;5.78;2.33;;;6.20;95.50;;;9.93;79.88;100876.91;4990427;28;96758;-74
2020/12/13 06:42:13;;;;;;;5.22;1.50;;;6.20;95.50;;;9.96;79.94;100875.56;4988895;28;96760;-74
2020/12/13 06:44:41;;;;;;;4.75;1.55;;;6.30;95.50;;;9.91;79.94;100875.63;4977276;28;97736;-74
2020/12/13 06:47:24;;;;;;;5.68;3.80;;;6.30;95.50;;;9.91;79.90;100881.78;4991766;28;96622;-75
2020/12/13 06:49:53;;;;;;;5.93;1.98;;;6.30;95.50;;;9.87;79.92;100879.97;4988596;28;96859;-75
2020/12/13 06:52:32;;;;;;;2.47;1.75;;;6.30;95.50;;;9.89;80.02;100891.16;4974682;28;98259;-75
2020/12/13 06:55:03;;;;;;;6.45;3.97;;;6.20;95.50;;;9.89;80.01;100883.13;4989283;28;96813;-75
2020/12/13 06:57:35;;;;;;;2.13;1.60;;;6.30;95.50;;;9.86;80.26;100881.06;4984340;28;96719;-75
2020/12/13 07:00:09;;;;;;;1.83;1.63;;;6.30;95.50;;;9.85;80.15;100879.47;4984856;28;97193;-75
2020/12/13 07:02:54;;;;;;;2.70;1.60;;;6.30;95.50;;;9.88;80.24;100881.56;4979074;28;96835;-75
2020/12/13 07:05:53;;;;;;;4.30;2.42;;;6.30;95.50;;;9.84;80.11;100892.06;4980810;28;96722;-75
2020/12/13 07:08:23;;;;;;;9.80;3.05;;;6.30;95.50;;;9.90;80.15;100890.06;4984092;28;96814;-75
2020/12/13 07:10:52;;;;;;;2.35;1.13;;;6.20;95.50;;;9.85;80.06;100888.31;4988957;28;96839;-75
2020/12/13 07:13:22;;;;;;;4.45;2.78;;;6.30;95.50;;;9.87;80.55;100888.00;5005925;28;97796;-75
2020/12/13 07:15:54;;;;;;;14.45;3.33;;;6.30;95.50;;;9.84;80.02;100886.72;4988367;28;97647;-75
2020/12/13 07:18:23;;;;;;;19.75;4.90;;;6.30;95.50;;;9.84;80.30;100886.72;4988851;28;97228;-75
2020/12/13 07:20:56;;;;;;;6.63;1.73;;;6.30;95.50;;;9.88;80.01;100893.06;4990238;28;97402;-75
2020/12/13 07:23:25;;;;;;;9.90;4.20;;;6.30;95.50;;;9.88;79.77;100900.28;4972655;28;96904;-75
2020/12/13 07:25:55;;;;;;;2.05;1.60;;;6.30;95.50;;;9.90;80.07;100896.25;4985951;28;97554;-75
2020/12/13 07:28:23;;;;;;;3.35;2.67;;;6.30;95.50;;;9.93;80.06;100900.22;4970997;28;97024;-75
2020/12/13 07:30:55;;;;;;;1.55;1.45;;;6.30;95.50;;;9.91;80.11;100903.19;4956842;28;97180;-75
2020/12/13 07:33:24;;;;;;;12.98;1.50;;;6.30;95.50;;;9.92;79.86;100902.09;4979898;28;97122;-75
2020/12/13 07:35:53;;;;;;;4.35;2.78;;;6.30;95.50;;;9.97;79.85;100911.94;4976597;28;97656;-75
2020/12/13 07:38:23;;;;;;;6.90;3.25;;;6.30;95.50;;;9.95;79.86;100908.75;4987763;28;96773;-75
2020/12/13 07:40:51;;;;;;;5.88;4.20;;;6.30;95.50;;;9.92;80.07;100910.13;4997051;28;97166;-76
2020/12/13 07:43:18;;;;;;;6.80;3.08;;;6.30;95.50;;;9.89;79.99;100913.38;4982715;28;97847;-75
2020/12/13 07:45:46;;;;;;;3.38;3.08;;;6.30;95.50;;;9.91;79.90;100924.59;5002863;28;96708;-75
2020/12/13 07:48:16;;;;;;;8.13;4.43;;;6.30;95.50;;;9.90;80.05;100927.53;4985426;28;96627;-76
2020/12/13 07:50:47;;;;;;;3.38;2.83;;;6.30;95.40;;;9.91;80.22;100934.53;4986698;28;96708;-76
2020/12/13 07:53:25;;;;;;;2.00;1.77;;;6.30;95.40;;;9.94;79.93;100940.06;4965721;28;97025;-75
2020/12/13 07:55:53;;;;;;;4.32;2.85;;;6.30;95.50;;;9.93;79.95;100943.81;4988996;28;98888;-75
2020/12/13 07:58:21;;;;;;;7.95;4.22;;;6.30;95.40;;;9.95;79.93;100938.97;4984047;28;96710;-75
2020/12/13 08:00:49;;;;;;;5.38;2.05;;;6.30;95.40;;;9.97;80.04;100934.13;4981823;28;97039;-76
2020/12/13 08:03:17;;;;;;;7.00;4.05;;;6.30;95.40;;;9.99;79.74;100939.19;4971531;28;96839;-75
2020/12/13 08:05:45;;;;;;;13.63;3.72;;;6.30;95.40;;;9.97;80.02;100944.84;4987536;28;98097;-75
2020/12/13 08:08:12;;;;;;;3.05;2.03;;;6.40;95.40;;;10.05;80.07;100943.41;4964632;28;96993;-75
2020/12/13 08:10:40;;;;;;;3.92;2.50;;;6.40;95.50;;;10.06;79.89;100943.13;4979731;28;96797;-75
2020/12/13 08:13:08;;;;;;;6.90;2.53;;;6.40;95.40;;;10.12;80.17;100944.63;4972256;28;96620;-75
2020/12/13 08:15:36;;;;;;;9.70;3.47;;;6.40;95.40;;;10.24;79.48;100949.53;4972593;28;97139;-75
2020/12/13 08:18:12;;;;;;;7.38;4.20;;;6.50;95.50;;;10.27;79.73;100951.63;4971770;28;96848;-75
2020/12/13 08:20:48;;;;;;;3.08;2.38;;;6.50;95.50;;;10.35;79.26;100953.59;4970145;28;96885;-76
2020/12/13 08:23:19;;;;;;;15.45;5.60;;;6.60;95.40;;;10.39;79.47;100963.44;4978965;28;98105;-75
2020/12/13 08:25:49;;;;;;;12.15;2.67;;;6.60;95.40;;;10.44;79.44;100955.31;4975451;28;97760;-75
2020/12/13 08:28:17;;;;;;;3.15;2.42;;;6.70;95.40;;;10.48;79.05;100959.00;4987550;28;96802;-75
2020/12/13 08:30:45;;;;;;;8.40;3.20;;;6.70;95.40;;;10.54;79.46;100962.38;4983517;28;97314;-76
2020/12/13 08:33:14;;;;;;;6.35;2.75;;;6.70;95.40;;;10.55;79.13;100961.28;4985564;28;97901;-76
2020/12/13 08:35:42;;;;;;;14.00;3.13;;;6.80;95.40;;;10.58;79.56;100964.16;4988051;28;96767;-76
2020/12/13 08:38:12;;;;;;;5.38;2.65;;;6.80;95.40;;;10.63;79.31;100968.63;4989995;28;96618;-76
2020/12/13 08:40:43;;;;;;;4.03;2.90;;;6.90;95.40;;;10.73;78.93;100981.84;4972649;28;96765;-76
2020/12/13 08:43:17;;;;;;;9.02;3.33;;;6.90;95.40;;;10.76;79.28;100978.56;4987945;28;97858;-75
2020/12/13 08:45:55;;;;;;;5.78;4.22;;;6.90;95.40;;;10.80;79.37;100972.31;4981758;28;97462;-75
2020/12/13 08:48:28;;;;;;;8.27;5.88;;;6.90;95.30;;;10.83;78.94;100984.34;4985322;28;96749;-76
2020/12/13 08:51:09;;;;;;;5.45;2.45;;;7.00;95.40;;;10.86;78.73;100976.50;4982802;28;96727;-76
2020/12/13 08:53:38;;;;;;;8.32;4.13;;;7.00;95.40;;;10.90;79.38;100989.00;4977981;28;98919;-76
2020/12/13 08:56:10;;;;;;;6.68;4.30;;;7.00;95.30;;;10.92;78.80;100994.06;4981505;28;97004;-76
2020/12/13 08:58:49;;;;;;;7.80;3.28;;;7.10;95.40;;;10.90;79.51;100993.56;4965946;28;97536;-76
2020/12/13 09:01:19;;;;;;;6.82;3.60;;;7.10;95.40;;;10.99;78.96;100992.59;4984385;28;96790;-75
2020/12/13 09:03:46;;;;;;;7.05;3.85;;;7.10;95.40;;;11.07;79.20;100997.25;4983242;28;98171;-75
2020/12/13 09:06:29;;;;;;;7.07;3.65;;;7.20;95.40;;;11.16;79.15;100997.34;4980747;28;97174;-76
2020/12/13 09:09:09;;;;;;;13.00;4.05;;;7.30;95.40;;;11.26;78.77;100992.56;4979093;28;97297;-76
2020/12/13 09:11:37;;;;;;;13.02;3.25;;;7.30;95.30;;;11.30;78.09;101001.59;4981937;28;97377;-76
2020/12/13 09:14:06;;;;;;;2.35;2.10;;;7.30;95.30;;;11.30;78.42;100998.94;4989048;28;96839;-76
2020/12/13 09:16:36;;;;;;;10.75;3.80;;;7.40;95.30;;;11.32;78.16;101004.78;4989930;28;97222;-75
2020/12/13 09:19:10;;;;;;;15.05;3.70;;;7.30;95.30;;;11.31;78.59;101008.56;4988016;28;96867;-76
2020/12/13 09:21:54;;;;;;;7.22;4.20;;;7.40;95.30;;;11.42;78.17;101012.66;4998888;28;96806;-75
2020/12/13 09:24:24;;;;;;;4.05;2.17;;;7.40;95.30;;;11.50;78.29;101003.88;4989922;28;97057;-76
2020/12/13 09:27:06;;;;;;;5.97;2.25;;;7.50;95.40;;;11.55;77.57;101006.47;4968656;28;98284;-76
2020/12/13 09:29:39;;;;;;;6.57;2.67;;;7.50;95.30;;;11.62;77.94;101014.91;4986916;28;97060;-76
2020/12/13 09:32:07;;;;;;;29.77;4.53;;;7.60;95.30;;;11.76;77.47;101014.88;4984780;28;97654;-76
2020/12/13 09:34:36;;;;;;;3.50;2.63;;;7.60;95.30;;;11.69;78.29;101031.38;4977578;28;97798;-75
2020/12/13 09:37:08;;;;;;;19.15;8.02;;;7.70;95.30;;;11.87;77.92;101022.41;4984142;28;97628;-75
2020/12/13 09:39:40;;;;;;;17.75;4.05;;;7.70;95.20;;;11.93;77.82;101020.41;4986199;28;96714;-75
2020/12/13 09:42:12;;;;;;;6.70;3.10;;;7.80;95.20;;;11.85;77.87;101023.78;5005233;28;96777;-75
2020/12/13 09:44:47;;;;;;;10.25;5.18;;;7.80;95.20;;;11.80;77.92;101027.41;4988008;28;98162;-75
2020/12/13 09:47:14;;;;;;;10.50;3.45;;;7.80;95.20;;;11.87;77.85;101030.47;4985760;28;98211;-75
2020/12/13 09:49:43;;;;;;;9.45;2.72;;;7.90;95.20;;;12.00;78.34;101035.00;4989383;28;97185;-75
2020/12/13 09:52:10;;;;;;;5.00;2.35;;;7.90;95.20;;;12.19;77.40;101037.53;4986653;28;96912;-75
2020/12/13 09:54:38;;;;;;;8.32;3.97;;;8.00;95.20;;;12.33;77.47;101041.75;4984381;28;96804;-75
2020/12/13 09:57:05;;;;;;;9.05;2.97;;;8.10;95.20;;;12.38;77.32;101044.31;4983667;28;97813;-76
2020/12/13 09:59:33;;;;;;;2.90;2.67;;;8.20;95.10;;;12.43;76.71;101042.28;4983620;28;96708;-75
2020/12/13 10:02:02;;;;;;;4.80;2.92;;;8.30;95.10;;;12.38;77.50;101049.69;4989381;28;97167;-75
2020/12/13 10:04:31;;;;;;;8.45;4.00;;;8.30;95.00;;;12.37;77.48;101050.78;4988865;28;97352;-76
2020/12/13 10:07:16;;;;;;;7.72;3.78;;;8.30;95.00;;;12.37;77.73;101048.09;4980355;28;97491;-76
2020/12/13 10:09:44;;;;;;;5.22;3.50;;;8.30;95.00;;;12.30;78.04;101044.25;4975303;28;97010;-76
2020/12/13 10:12:12;;;;;;;12.80;4.05;;;8.40;95.00;;;12.27;77.86;101044.84;4990452;28;96816;-75
2020/12/13 10:14:39;;;;;;;17.50;4.85;;;8.30;95.00;;;12.32;77.81;101042.84;4982016;28;98264;-75
2020/12/13 10:17:08;;;;;;;11.20;4.20;;;8.40;95.10;;;12.23;78.42;101047.34;4975641;28;97334;-75
2020/12/13 10:19:36;;;;;;;8.30;4.70;;;8.40;95.10;;;12.28;78.18;101041.84;4980107;28;96876;-75
2020/12/13 10:22:05;;;;;;;23.15;4.13;;;8.40;95.10;;;12.43;78.26;101044.19;4977569;28;96886;-75
2020/12/13 10:24:33;;;;;;;11.20;5.63;;;8.40;95.10;;;12.44;77.76;101038.50;4981359;28;97216;-75
2020/12/13 10:27:04;;;;;;;15.43;3.70;;;8.50;95.10;;;12.52;78.05;101045.03;4977565;28;97695;-75
2020/12/13 10:29:32;;;;;;;6.53;3.10;;;8.50;95.10;;;12.54;78.01;101046.31;4987847;28;96900;-75
2020/12/13 10:31:59;;;;;;;12.52;5.70;;;8.50;95.10;;;12.56;77.74;101043.31;4984771;28;97541;-75
2020/12/13 10:34:32;;;;;;;14.30;5.90;;;8.60;95.10;;;12.58;78.32;101049.16;4981208;28;97208;-75
2020/12/13 10:36:59;;;;;;;5.20;3.58;;;8.60;95.10;;;12.57;78.65;101056.47;4979768;28;97148;-75